createdAt,value
2018-03-27T00:01:19.079Z,5.70
2018-03-27T00:03:49.376Z,5.70
2018-03-27T00:06:25.331Z,5.70
2018-03-27T00:08:55.837Z,6.10
2018-03-27T00:11:27.281Z,5.60
2018-03-27T00:14:00.739Z,5.60
2018-03-27T00:16:32.577Z,5.40
2018-03-27T00:19:04.624Z,5.10
2018-03-27T00:21:36.403Z,5.40
2018-03-27T00:24:07.801Z,5.50
2018-03-27T00:26:56.992Z,5.70
2018-03-27T00:29:45.441Z,5.80
2018-03-27T00:32:52.914Z,6.10
2018-03-27T00:35:48.412Z,6.00
2018-03-27T00:38:42.888Z,6.00
2018-03-27T00:45:09.746Z,6.00
2018-03-27T00:47:40.373Z,6.20
2018-03-27T00:50:12.017Z,6.20
2018-03-27T00:52:44.162Z,6.30
2018-03-27T00:55:14.829Z,6.30
2018-03-27T00:57:47.873Z,6.00
2018-03-27T01:00:19.603Z,6.00
2018-03-27T01:02:52.255Z,5.90
2018-03-27T01:05:25.295Z,6.20
2018-03-27T01:07:57.049Z,6.20
2018-03-27T01:10:28.332Z,6.30
2018-03-27T01:12:59.621Z,6.30
2018-03-27T01:15:30.754Z,6.30
2018-03-27T01:18:01.380Z,6.10
2018-03-27T01:20:33.544Z,5.60
2018-03-27T01:23:06.400Z,5.50
2018-03-27T01:25:37.113Z,5.60
2018-03-27T01:28:08.443Z,5.70
2018-03-27T01:30:39.404Z,5.70
2018-03-27T01:33:11.692Z,6.00
2018-03-27T01:35:53.535Z,6.30
2018-03-27T01:38:27.179Z,6.30
2018-03-27T01:41:00.720Z,6.40
2018-03-27T01:43:31.854Z,6.00
2018-03-27T01:46:02.610Z,6.00
2018-03-27T01:48:34.964Z,6.10
2018-03-27T01:54:21.346Z,6.30
2018-03-27T01:56:52.500Z,6.20
2018-03-27T01:59:26.469Z,6.10
2018-03-27T02:05:04.845Z,5.70
2018-03-27T02:07:38.347Z,5.70
2018-03-27T02:10:12.038Z,5.60
2018-03-27T02:15:41.512Z,5.20
2018-03-27T02:18:21.331Z,5.20
2018-03-27T02:20:59.035Z,5.20
2018-03-27T02:23:29.504Z,5.50
2018-03-27T02:25:58.875Z,5.70
2018-03-27T02:28:28.469Z,5.70
2018-03-27T02:31:02.504Z,5.60
2018-03-27T02:33:35.932Z,5.70
2018-03-27T02:36:10.151Z,5.90
2018-03-27T02:38:44.819Z,5.90
2018-03-27T02:41:17.823Z,5.60
2018-03-27T02:43:55.963Z,5.50
2018-03-27T02:49:03.729Z,5.80
2018-03-27T02:51:34.744Z,5.40
2018-03-27T02:54:11.492Z,4.90
2018-03-27T02:56:47.105Z,4.70
2018-03-27T02:59:17.624Z,4.90
2018-03-27T03:01:49.241Z,5.20
2018-03-27T03:04:19.799Z,5.20
2018-03-27T03:06:49.585Z,5.40
2018-03-27T03:09:18.890Z,5.60
2018-03-27T03:11:48.250Z,5.70
2018-03-27T03:14:17.581Z,5.80
2018-03-27T03:16:46.924Z,5.80
2018-03-27T03:19:16.210Z,5.30
2018-03-27T03:21:49.470Z,5.10
2018-03-27T03:24:19.038Z,5.10
2018-03-27T03:26:48.583Z,5.20
2018-03-27T03:29:18.655Z,5.40
2018-03-27T03:31:47.978Z,5.40
2018-03-27T03:34:17.481Z,5.50
2018-03-27T03:36:46.837Z,5.60
2018-03-27T03:39:16.195Z,5.70
2018-03-27T03:41:45.696Z,5.70
2018-03-27T03:44:16.147Z,5.60
2018-03-27T03:47:02.856Z,5.30
2018-03-27T03:49:38.054Z,5.40
2018-03-27T03:52:11.854Z,5.60
2018-03-27T03:54:43.958Z,5.60
2018-03-27T03:57:14.854Z,5.30
2018-03-27T03:59:48.805Z,5.50
2018-03-27T04:02:20.629Z,5.50
2018-03-27T04:04:53.191Z,5.30
2018-03-27T04:07:26.575Z,5.30
2018-03-27T04:09:59.340Z,5.40
2018-03-27T04:12:34.572Z,4.70
2018-03-27T04:15:08.180Z,4.20
2018-03-27T04:17:38.516Z,4.90
2018-03-27T04:20:08.725Z,4.90
2018-03-27T04:22:39.762Z,5.00
2018-03-27T04:25:09.078Z,5.00
2018-03-27T04:27:38.375Z,5.20
2018-03-27T04:30:07.784Z,5.20
2018-03-27T04:32:37.147Z,5.30
2018-03-27T04:35:06.492Z,5.20
2018-03-27T04:37:35.840Z,5.30
2018-03-27T04:40:05.188Z,5.30
2018-03-27T04:42:35.234Z,5.10
2018-03-27T04:45:05.963Z,5.00
2018-03-27T04:47:35.320Z,5.00
2018-03-27T04:50:23.171Z,5.10
2018-03-27T04:52:58.632Z,5.20
2018-03-27T04:55:28.248Z,4.80
2018-03-27T04:57:57.589Z,4.40
2018-03-27T05:00:26.909Z,4.50
2018-03-27T05:02:57.027Z,5.10
2018-03-27T05:05:27.135Z,5.20
2018-03-27T05:07:56.443Z,5.20
2018-03-27T05:10:31.551Z,5.20
2018-03-27T05:13:03.761Z,5.20
2018-03-27T05:15:37.204Z,5.10
2018-03-27T05:18:09.500Z,4.90
2018-03-27T05:20:42.592Z,5.20
2018-03-27T05:23:13.054Z,5.20
2018-03-27T05:25:43.870Z,5.20
2018-03-27T05:28:13.479Z,5.20
2018-03-27T05:30:42.800Z,5.10
2018-03-27T05:33:14.725Z,4.90
2018-03-27T05:35:45.997Z,4.90
2018-03-27T05:38:16.488Z,4.90
2018-03-27T05:40:47.381Z,4.80
2018-03-27T05:43:20.662Z,4.60
2018-03-27T05:45:50.230Z,5.10
2018-03-27T05:48:22.359Z,5.50
2018-03-27T05:50:53.337Z,5.60
2018-03-27T05:53:28.681Z,5.50
2018-03-27T05:56:07.846Z,5.70
2018-03-27T05:58:41.392Z,5.80
2018-03-27T06:01:11.752Z,6.20
2018-03-27T06:03:48.130Z,6.50
2018-03-27T06:06:20.248Z,6.30
2018-03-27T06:08:53.475Z,6.20
2018-03-27T06:11:28.026Z,6.20
2018-03-27T06:14:01.324Z,5.90
2018-03-27T06:16:31.301Z,6.20
2018-03-27T06:19:02.746Z,6.30
2018-03-27T06:21:36.563Z,6.20
2018-03-27T06:24:06.059Z,6.50
2018-03-27T06:26:35.499Z,6.50
2018-03-27T06:29:04.786Z,6.50
2018-03-27T06:31:34.479Z,6.70
2018-03-27T06:34:06.552Z,6.80
2018-03-27T06:36:37.275Z,6.80
2018-03-27T06:39:07.827Z,6.30
2018-03-27T06:41:37.836Z,6.10
2018-03-27T06:44:07.162Z,6.20
2018-03-27T06:46:37.657Z,6.50
2018-03-27T06:49:07.002Z,6.60
2018-03-27T06:51:36.335Z,6.90
2018-03-27T06:54:05.766Z,7.10
2018-03-27T06:56:35.014Z,7.00
2018-03-27T06:59:04.359Z,6.40
2018-03-27T07:01:33.789Z,6.20
2018-03-27T07:04:03.131Z,6.10
2018-03-27T07:06:32.431Z,6.00
2018-03-27T07:09:01.828Z,6.30
2018-03-27T07:11:31.107Z,6.70
2018-03-27T07:14:00.469Z,6.80
2018-03-27T07:16:29.984Z,6.80
2018-03-27T07:18:59.277Z,6.60
2018-03-27T07:21:28.595Z,6.70
2018-03-27T07:23:58.293Z,6.90
2018-03-27T07:26:27.807Z,6.40
2018-03-27T07:28:57.347Z,5.70
2018-03-27T07:31:28.614Z,6.20
2018-03-27T07:33:58.066Z,6.20
2018-03-27T07:36:27.618Z,6.60
2018-03-27T07:38:56.999Z,6.90
2018-03-27T07:41:26.326Z,6.70
2018-03-27T07:43:56.547Z,6.70
2018-03-27T07:46:25.896Z,6.70
2018-03-27T07:48:55.507Z,7.40
2018-03-27T07:51:26.702Z,6.30
2018-03-27T07:53:56.014Z,6.30
2018-03-27T07:56:26.458Z,6.70
2018-03-27T07:58:56.223Z,6.70
2018-03-27T08:01:25.610Z,6.90
2018-03-27T08:03:55.514Z,7.60
2018-03-27T08:06:24.842Z,8.00
2018-03-27T08:08:54.325Z,7.70
2018-03-27T08:11:23.969Z,8.00
2018-03-27T08:13:53.285Z,8.40
2018-03-27T08:16:22.639Z,8.30
2018-03-27T08:18:53.190Z,8.60
2018-03-27T08:21:22.545Z,8.60
2018-03-27T08:23:51.849Z,8.00
2018-03-27T08:26:21.214Z,7.60
2018-03-27T08:28:51.788Z,8.00
2018-03-27T08:31:22.242Z,8.00
2018-03-27T08:33:52.887Z,7.20
2018-03-27T08:36:23.065Z,7.60
2018-03-27T08:38:53.186Z,7.70
2018-03-27T08:41:24.960Z,7.90
2018-03-27T08:43:54.300Z,7.90
2018-03-27T08:46:23.699Z,8.60
2018-03-27T08:48:53.798Z,8.50
2018-03-27T08:51:24.501Z,8.90
2018-03-27T08:53:54.196Z,8.90
2018-03-27T08:56:24.760Z,8.80
2018-03-27T08:58:54.149Z,8.70
2018-03-27T09:01:23.981Z,9.10
2018-03-27T09:03:54.264Z,9.10
2018-03-27T09:06:24.164Z,8.80
2018-03-27T09:08:55.276Z,8.80
2018-03-27T09:11:24.770Z,8.70
2018-03-27T09:13:55.966Z,8.70
2018-03-27T09:16:25.396Z,8.70
2018-03-27T09:18:54.906Z,8.90
2018-03-27T09:21:25.284Z,9.30
2018-03-27T09:23:54.698Z,9.30
2018-03-27T09:26:24.451Z,9.00
2018-03-27T09:28:55.285Z,9.60
2018-03-27T09:31:24.628Z,9.60
2018-03-27T09:33:56.194Z,9.70
2018-03-27T09:36:26.220Z,9.70
2018-03-27T09:38:57.819Z,9.20
2018-03-27T09:41:32.811Z,9.20
2018-03-27T09:44:06.313Z,9.20
2018-03-27T09:46:37.227Z,9.20
2018-03-27T09:49:07.881Z,9.20
2018-03-27T09:51:38.132Z,8.70
2018-03-27T09:54:09.666Z,8.70
2018-03-27T09:56:40.829Z,8.70
2018-03-27T09:59:11.538Z,9.00
2018-03-27T10:01:46.380Z,9.20
2018-03-27T10:04:22.330Z,9.20
2018-03-27T10:06:54.973Z,8.90
2018-03-27T10:09:24.432Z,8.90
2018-03-27T10:11:54.518Z,9.60
2018-03-27T10:14:23.856Z,9.60
2018-03-27T10:16:53.499Z,10.10
2018-03-27T10:19:23.070Z,9.70
2018-03-27T10:21:53.371Z,9.40
2018-03-27T10:24:22.732Z,9.40
2018-03-27T10:26:52.046Z,9.80
2018-03-27T10:29:22.260Z,10.10
2018-03-27T10:31:53.535Z,10.10
2018-03-27T10:34:23.558Z,10.60
2018-03-27T10:36:55.335Z,11.00
2018-03-27T10:39:26.575Z,11.10
2018-03-27T10:41:57.557Z,11.20
2018-03-27T10:44:29.940Z,10.20
2018-03-27T10:47:03.228Z,10.20
2018-03-27T10:49:32.685Z,10.20
2018-03-27T10:52:03.040Z,11.80
2018-03-27T10:54:33.254Z,11.70
2018-03-27T10:57:03.934Z,11.80
2018-03-27T10:59:33.868Z,11.80
2018-03-27T11:02:04.696Z,11.90
2018-03-27T11:04:34.081Z,11.80
2018-03-27T11:07:04.020Z,12.30
2018-03-27T11:09:34.820Z,12.60
2018-03-27T11:12:04.216Z,12.50
2018-03-27T11:14:34.284Z,11.80
2018-03-27T11:17:04.985Z,13.20
2018-03-27T11:19:34.413Z,13.20
2018-03-27T11:22:05.007Z,12.30
2018-03-27T11:24:34.373Z,12.30
2018-03-27T11:27:06.169Z,12.50
2018-03-27T11:29:35.518Z,12.50
2018-03-27T11:32:07.825Z,12.00
2018-03-27T11:34:39.239Z,12.60
2018-03-27T11:37:12.764Z,12.70
2018-03-27T11:39:46.843Z,12.20
2018-03-27T11:42:19.266Z,11.80
2018-03-27T11:44:49.429Z,11.70
2018-03-27T11:47:21.176Z,12.80
2018-03-27T11:49:50.511Z,12.30
2018-03-27T11:52:19.821Z,12.80
2018-03-27T11:54:49.208Z,12.50
2018-03-27T11:57:18.714Z,12.20
2018-03-27T11:59:48.041Z,12.60
2018-03-27T12:02:17.419Z,13.00
2018-03-27T12:04:46.711Z,12.30
2018-03-27T12:07:16.013Z,12.20
2018-03-27T12:09:45.318Z,12.00
2018-03-27T12:12:14.703Z,11.70
2018-03-27T12:14:44.034Z,12.00
2018-03-27T12:17:14.243Z,12.50
2018-03-27T12:19:43.553Z,13.00
2018-03-27T12:22:12.917Z,12.90
2018-03-27T12:24:43.014Z,12.50
2018-03-27T12:27:12.316Z,12.50
2018-03-27T12:29:41.679Z,12.70
2018-03-27T12:32:42.554Z,12.60
2018-03-27T12:35:15.479Z,13.20
2018-03-27T12:37:46.725Z,13.20
2018-03-27T12:40:18.356Z,13.20
2018-03-27T12:42:50.493Z,13.20
2018-03-27T12:45:21.436Z,13.50
2018-03-27T12:47:54.027Z,13.00
2018-03-27T12:50:24.198Z,13.00
2018-03-27T12:52:56.334Z,13.60
2018-03-27T12:55:25.976Z,13.10
2018-03-27T12:57:55.639Z,13.20
2018-03-27T13:00:25.009Z,13.70
2018-03-27T13:02:55.590Z,13.20
2018-03-27T13:05:24.930Z,13.20
2018-03-27T13:07:54.227Z,13.60
2018-03-27T13:10:23.810Z,13.70
2018-03-27T13:12:53.133Z,13.00
2018-03-27T13:15:22.463Z,13.00
2018-03-27T13:17:52.031Z,13.00
2018-03-27T13:20:21.340Z,13.10
2018-03-27T13:22:50.803Z,13.10
2018-03-27T13:25:21.065Z,13.50
2018-03-27T13:27:50.350Z,13.50
2018-03-27T13:30:19.699Z,13.90
2018-03-27T13:32:50.984Z,13.50
2018-03-27T13:35:23.592Z,13.00
2018-03-27T13:37:55.339Z,13.00
2018-03-27T13:40:27.042Z,12.70
2018-03-27T13:42:58.826Z,13.30
2018-03-27T13:45:33.788Z,13.30
2018-03-27T13:48:04.900Z,12.90
2018-03-27T13:50:37.967Z,13.10
2018-03-27T13:53:10.415Z,13.10
2018-03-27T13:55:40.374Z,13.20
2018-03-27T13:58:15.011Z,13.40
2018-03-27T14:00:48.171Z,12.80
2018-03-27T14:03:19.487Z,12.70
2018-03-27T14:05:49.971Z,13.10
2018-03-27T14:08:23.998Z,13.50
2018-03-27T14:10:55.757Z,13.40
2018-03-27T14:13:26.074Z,13.30
2018-03-27T14:15:58.694Z,12.40
2018-03-27T14:18:31.250Z,12.20
2018-03-27T14:21:03.183Z,12.00
2018-03-27T14:23:34.267Z,11.80
2018-03-27T14:26:06.235Z,11.60
2018-03-27T14:28:36.720Z,11.30
2018-03-27T14:31:06.251Z,11.30
2018-03-27T14:33:39.025Z,10.80
2018-03-27T14:36:09.643Z,10.10
2018-03-27T14:38:42.594Z,9.80
2018-03-27T14:41:13.974Z,9.70
2018-03-27T14:43:44.777Z,10.20
2018-03-27T14:46:15.802Z,11.10
2018-03-27T14:48:50.365Z,11.80
2018-03-27T14:51:21.815Z,11.90
2018-03-27T14:53:53.432Z,11.50
2018-03-27T14:56:23.938Z,11.10
2018-03-27T14:58:55.648Z,11.60
2018-03-27T15:01:28.406Z,11.20
2018-03-27T15:04:01.515Z,11.20
2018-03-27T15:06:32.082Z,11.10
2018-03-27T15:09:03.459Z,11.50
2018-03-27T15:11:34.435Z,12.10
2018-03-27T15:14:05.673Z,12.10
2018-03-27T15:16:36.693Z,12.40
2018-03-27T15:19:07.026Z,12.40
2018-03-27T15:21:37.734Z,12.60
2018-03-27T15:24:12.447Z,12.70
2018-03-27T15:26:43.514Z,12.70
2018-03-27T15:29:15.068Z,11.90
2018-03-27T15:31:46.586Z,11.20
2018-03-27T15:34:22.433Z,10.30
2018-03-27T15:40:00.273Z,10.20
2018-03-27T15:42:31.983Z,9.80
2018-03-27T15:45:03.736Z,9.60
2018-03-27T15:47:35.739Z,10.10
2018-03-27T15:50:06.173Z,9.40
2018-03-27T15:52:38.466Z,9.40
2018-03-27T15:55:11.311Z,9.20
2018-03-27T15:57:42.920Z,8.50
2018-03-27T16:00:15.776Z,8.70
2018-03-27T16:02:47.853Z,8.70
2018-03-27T16:05:23.923Z,9.10
2018-03-27T16:07:56.125Z,9.00
2018-03-27T16:10:28.562Z,9.30
2018-03-27T16:12:58.686Z,9.50
2018-03-27T16:15:30.688Z,9.80
2018-03-27T16:18:00.698Z,9.70
2018-03-27T16:20:33.724Z,10.00
2018-03-27T16:23:09.706Z,9.60
2018-03-27T16:26:01.267Z,9.60
2018-03-27T16:28:30.678Z,8.90
2018-03-27T16:31:00.099Z,9.10
2018-03-27T16:33:32.122Z,9.30
2018-03-27T16:36:08.345Z,8.80
2018-03-27T16:38:38.817Z,8.80
2018-03-27T16:41:10.619Z,9.10
2018-03-27T16:43:46.315Z,9.10
2018-03-27T16:46:21.536Z,9.50
2018-03-27T16:48:53.723Z,9.50
2018-03-27T16:51:24.219Z,9.50
2018-03-27T16:54:15.870Z,9.50
2018-03-27T16:56:45.943Z,9.60
2018-03-27T16:59:16.806Z,8.90
2018-03-27T17:01:49.462Z,9.10
2018-03-27T17:04:22.013Z,9.50
2018-03-27T17:07:03.947Z,9.40
2018-03-27T17:09:35.563Z,9.30
2018-03-27T17:12:07.215Z,9.10
2018-03-27T17:14:39.923Z,9.10
2018-03-27T17:17:09.868Z,9.00
2018-03-27T17:19:41.755Z,8.90
2018-03-27T17:22:12.605Z,9.10
2018-03-27T17:24:42.883Z,9.20
2018-03-27T17:27:14.579Z,8.90
2018-03-27T17:29:44.813Z,8.60
2018-03-27T17:32:16.503Z,9.00
2018-03-27T17:34:46.074Z,8.70
2018-03-27T17:37:15.491Z,8.50
2018-03-27T17:39:44.994Z,8.50
2018-03-27T17:42:15.363Z,8.10
2018-03-27T17:44:49.459Z,7.50
2018-03-27T17:47:21.947Z,7.40
2018-03-27T17:49:52.101Z,7.60
2018-03-27T17:52:25.569Z,7.60
2018-03-27T17:54:58.787Z,7.80
2018-03-27T17:57:30.153Z,8.30
2018-03-27T18:00:00.918Z,8.30
2018-03-27T18:02:33.557Z,7.90
2018-03-27T18:05:03.648Z,7.90
2018-03-27T18:07:34.727Z,7.70
2018-03-27T18:10:06.647Z,7.60
2018-03-27T18:12:36.907Z,8.20
2018-03-27T18:15:06.328Z,8.20
2018-03-27T18:17:36.420Z,6.70
2018-03-27T18:20:05.761Z,6.70
2018-03-27T18:22:42.143Z,6.70
2018-03-27T18:25:15.509Z,6.20
2018-03-27T18:27:46.488Z,6.20
2018-03-27T18:30:18.811Z,6.80
2018-03-27T18:32:51.093Z,7.50
2018-03-27T18:35:28.518Z,7.40
2018-03-27T18:37:59.359Z,7.30
2018-03-27T18:40:30.801Z,7.50
2018-03-27T18:45:47.885Z,7.80
2018-03-27T18:48:21.774Z,7.70
2018-03-27T18:50:54.023Z,7.70
2018-03-27T18:53:26.382Z,7.10
2018-03-27T18:55:57.971Z,7.00
2018-03-27T18:58:31.361Z,6.70
2018-03-27T19:01:05.322Z,5.90
2018-03-27T19:03:35.787Z,5.90
2018-03-27T19:06:08.848Z,6.30
2018-03-27T19:08:42.301Z,6.70
2018-03-27T19:11:12.727Z,6.90
2018-03-27T19:13:45.667Z,6.60
2018-03-27T19:16:28.437Z,6.60
2018-03-27T19:19:03.829Z,6.50
2018-03-27T19:21:35.274Z,6.70
2018-03-27T19:24:33.297Z,6.90
2018-03-27T19:27:07.059Z,6.70
2018-03-27T19:29:38.494Z,6.90
2018-03-27T19:32:10.660Z,7.10
2018-03-27T19:34:41.642Z,7.40
2018-03-27T19:37:13.158Z,7.50
2018-03-27T19:39:47.779Z,7.60
2018-03-27T19:42:20.585Z,7.70
2018-03-27T19:44:51.545Z,7.80
2018-03-27T19:47:22.513Z,7.80
2018-03-27T19:49:53.427Z,7.60
2018-03-27T19:52:28.618Z,7.10
2018-03-27T19:55:09.215Z,7.00
2018-03-27T19:57:41.264Z,6.90
2018-03-27T20:00:12.815Z,7.10
2018-03-27T20:02:47.623Z,7.00
2018-03-27T20:05:19.530Z,7.50
2018-03-27T20:07:49.717Z,7.70
2018-03-27T20:10:21.768Z,7.60
2018-03-27T20:12:52.620Z,7.70
2018-03-27T20:15:24.666Z,7.80
2018-03-27T20:18:13.428Z,7.70
2018-03-27T20:20:45.605Z,7.60
2018-03-27T20:23:17.180Z,7.40
2018-03-27T20:25:47.549Z,7.50
2018-03-27T20:28:19.734Z,7.60
2018-03-27T20:33:49.249Z,7.10
2018-03-27T20:36:21.213Z,7.10
2018-03-27T20:38:54.773Z,7.20
2018-03-27T20:41:27.004Z,7.00
2018-03-27T20:44:00.401Z,7.00
2018-03-27T20:46:32.725Z,7.20
2018-03-27T20:49:05.611Z,7.40
2018-03-27T20:51:37.809Z,7.50
2018-03-27T20:54:08.980Z,7.50
2018-03-27T20:56:42.344Z,7.10
2018-03-27T20:59:15.862Z,6.90
2018-03-27T21:01:46.499Z,6.60
2018-03-27T21:04:19.026Z,6.70
2018-03-27T21:06:52.959Z,6.90
2018-03-27T21:09:25.474Z,6.90
2018-03-27T21:11:56.603Z,6.90
2018-03-27T21:14:29.946Z,6.70
2018-03-27T21:17:00.558Z,6.70
2018-03-27T21:19:32.872Z,6.40
2018-03-27T21:22:05.773Z,6.30
2018-03-27T21:24:37.039Z,6.20
2018-03-27T21:27:08.536Z,6.30
2018-03-27T21:29:40.808Z,6.30
2018-03-27T21:32:14.603Z,6.20
2018-03-27T21:34:44.986Z,5.60
2018-03-27T21:37:25.515Z,5.90
2018-03-27T21:40:00.764Z,5.90
2018-03-27T21:42:32.188Z,5.50
2018-03-27T21:45:09.052Z,5.50
2018-03-27T21:47:39.704Z,5.70
2018-03-27T21:50:10.943Z,5.90
2018-03-27T21:52:41.634Z,5.70
2018-03-27T21:55:12.982Z,5.70
2018-03-27T21:57:49.975Z,5.20
2018-03-27T22:00:22.712Z,5.20
2018-03-27T22:02:56.160Z,5.30
2018-03-27T22:05:27.204Z,5.40
2018-03-27T22:08:01.351Z,5.00
2018-03-27T22:10:33.375Z,4.90
2018-03-27T22:13:07.849Z,5.10
2018-03-27T22:15:40.948Z,4.30
2018-03-27T22:18:13.016Z,4.50
2018-03-27T22:20:44.506Z,4.60
2018-03-27T22:23:14.821Z,4.60
2018-03-27T22:25:45.857Z,4.40
2018-03-27T22:28:16.606Z,4.00
2018-03-27T22:30:49.053Z,4.40
2018-03-27T22:33:20.150Z,4.70
2018-03-27T22:35:51.097Z,4.70
2018-03-27T22:38:21.500Z,4.80
2018-03-27T22:40:52.733Z,4.80
2018-03-27T22:43:28.497Z,4.50
2018-03-27T22:46:05.098Z,3.50
2018-03-27T22:48:36.183Z,3.40
2018-03-27T22:51:06.864Z,4.00
2018-03-27T22:53:37.337Z,4.30
2018-03-27T22:56:09.950Z,4.20
2018-03-27T22:58:41.650Z,4.10
2018-03-27T23:01:13.345Z,4.30
2018-03-27T23:03:49.816Z,4.20
2018-03-27T23:06:21.879Z,3.50
2018-03-27T23:08:53.945Z,3.80
2018-03-27T23:11:24.762Z,3.80
2018-03-27T23:13:57.276Z,4.00
2018-03-27T23:16:28.896Z,4.00
2018-03-27T23:19:01.405Z,4.30
2018-03-27T23:21:32.049Z,4.30
2018-03-27T23:24:05.368Z,4.00
2018-03-27T23:26:40.814Z,4.10
2018-03-27T23:29:17.651Z,3.70
2018-03-27T23:32:14.363Z,3.80
2018-03-27T23:34:46.689Z,3.80
2018-03-27T23:37:41.581Z,3.90
2018-03-27T23:40:14.036Z,3.80
2018-03-27T23:42:48.399Z,3.60
2018-03-27T23:45:20.115Z,3.60
2018-03-27T23:47:56.298Z,3.80
2018-03-27T23:50:27.538Z,3.70
2018-03-27T23:53:00.668Z,3.60
2018-03-27T23:55:32.947Z,3.50
2018-03-27T23:58:04.386Z,3.60
